sensor_id;sensor_type;location;lat;lon;timestamp;pressure;altitude;pressure_sealevel;temperature;humidity
12781;BME280;6454;43.304;24.344;2023-04-28T00:00:32;100623.44;;;9.62;55.07
12781;BME280;6454;43.304;24.344;2023-04-28T00:02:59;100654.34;;;9.91;54.84
12781;BME280;6454;43.304;24.344;2023-04-28T00:05:27;100655.72;;;9.99;53.93
12781;BME280;6454;43.304;24.344;2023-04-28T00:07:54;100654.06;;;9.98;53.83
12781;BME280;6454;43.304;24.344;2023-04-28T00:10:21;100647.31;;;9.95;53.17
12781;BME280;6454;43.304;24.344;2023-04-28T00:12:48;100649.47;;;9.93;55.56
12781;BME280;6454;43.304;24.344;2023-04-28T00:15:15;100644.03;;;9.83;55.23
12781;BME280;6454;43.304;24.344;2023-04-28T00:17:41;100641.84;;;9.65;54.21
12781;BME280;6454;43.304;24.344;2023-04-28T00:20:10;100643.47;;;9.61;55.67
12781;BME280;6454;43.304;24.344;2023-04-28T00:22:38;100651.06;;;9.59;55.33
12781;BME280;6454;43.304;24.344;2023-04-28T00:25:05;100647.81;;;9.57;55.61
12781;BME280;6454;43.304;24.344;2023-04-28T00:27:32;100613.59;;;9.26;56.04
12781;BME280;6454;43.304;24.344;2023-04-28T00:29:59;100659.41;;;9.47;55.54
12781;BME280;6454;43.304;24.344;2023-04-28T00:32:26;100661.00;;;9.33;55.49
12781;BME280;6454;43.304;24.344;2023-04-28T00:34:53;100662.88;;;9.33;56.06
12781;BME280;6454;43.304;24.344;2023-04-28T00:37:20;100673.47;;;9.34;55.79
12781;BME280;6454;43.304;24.344;2023-04-28T00:39:48;100674.81;;;9.37;55.60
12781;BME280;6454;43.304;24.344;2023-04-28T00:42:19;100666.94;;;9.30;55.96
12781;BME280;6454;43.304;24.344;2023-04-28T00:44:46;100666.38;;;9.28;56.50
12781;BME280;6454;43.304;24.344;2023-04-28T00:47:15;100663.41;;;9.25;56.73
12781;BME280;6454;43.304;24.344;2023-04-28T00:49:43;100656.88;;;9.21;57.46
12781;BME280;6454;43.304;24.344;2023-04-28T00:52:10;100654.09;;;9.05;57.49
12781;BME280;6454;43.304;24.344;2023-04-28T00:54:36;100591.16;;;8.63;57.30
12781;BME280;6454;43.304;24.344;2023-04-28T00:57:04;100655.22;;;9.04;57.22
12781;BME280;6454;43.304;24.344;2023-04-28T00:59:32;100657.34;;;9.02;57.69
12781;BME280;6454;43.304;24.344;2023-04-28T01:01:59;100658.41;;;8.96;59.01
12781;BME280;6454;43.304;24.344;2023-04-28T01:04:28;100646.47;;;8.87;58.62
12781;BME280;6454;43.304;24.344;2023-04-28T01:06:55;100656.72;;;8.85;58.50
12781;BME280;6454;43.304;24.344;2023-04-28T01:09:22;100660.78;;;8.88;58.88
12781;BME280;6454;43.304;24.344;2023-04-28T01:11:49;100665.09;;;8.84;58.96
12781;BME280;6454;43.304;24.344;2023-04-28T01:14:17;100664.53;;;8.77;58.99
12781;BME280;6454;43.304;24.344;2023-04-28T01:16:44;100666.69;;;8.75;59.46
12781;BME280;6454;43.304;24.344;2023-04-28T01:19:16;100663.09;;;8.64;59.84
12781;BME280;6454;43.304;24.344;2023-04-28T01:21:45;100654.09;;;8.54;59.83
12781;BME280;6454;43.304;24.344;2023-04-28T01:24:14;100658.63;;;8.43;60.35
12781;BME280;6454;43.304;24.344;2023-04-28T01:26:41;100654.78;;;8.34;60.29
12781;BME280;6454;43.304;24.344;2023-04-28T01:29:07;100661.09;;;8.18;60.22
12781;BME280;6454;43.304;24.344;2023-04-28T01:31:34;100660.53;;;8.16;60.09
12781;BME280;6454;43.304;24.344;2023-04-28T01:34:01;100661.06;;;8.13;59.61
12781;BME280;6454;43.304;24.344;2023-04-28T01:36:28;100673.09;;;8.27;59.08
12781;BME280;6454;43.304;24.344;2023-04-28T01:38:55;100666.41;;;8.34;59.02
12781;BME280;6454;43.304;24.344;2023-04-28T01:41:23;100667.00;;;8.41;58.73
12781;BME280;6454;43.304;24.344;2023-04-28T01:43:50;100670.50;;;8.37;59.83
12781;BME280;6454;43.304;24.344;2023-04-28T01:46:16;100662.84;;;8.29;60.69
12781;BME280;6454;43.304;24.344;2023-04-28T01:48:43;100663.59;;;8.24;61.09
12781;BME280;6454;43.304;24.344;2023-04-28T01:51:10;100661.69;;;8.20;61.56
12781;BME280;6454;43.304;24.344;2023-04-28T01:53:37;100668.09;;;8.14;61.96
12781;BME280;6454;43.304;24.344;2023-04-28T01:56:04;100661.84;;;8.08;62.35
12781;BME280;6454;43.304;24.344;2023-04-28T01:58:32;100653.59;;;7.93;63.23
12781;BME280;6454;43.304;24.344;2023-04-28T02:00:58;100655.53;;;7.71;63.67
12781;BME280;6454;43.304;24.344;2023-04-28T02:03:25;100665.03;;;7.73;63.06
12781;BME280;6454;43.304;24.344;2023-04-28T02:05:53;100660.75;;;7.77;62.46
12781;BME280;6454;43.304;24.344;2023-04-28T02:08:20;100666.50;;;7.86;62.15
12781;BME280;6454;43.304;24.344;2023-04-28T02:10:47;100663.19;;;7.79;63.91
12781;BME280;6454;43.304;24.344;2023-04-28T02:13:14;100666.25;;;7.61;64.23
12781;BME280;6454;43.304;24.344;2023-04-28T02:15:42;100666.50;;;7.59;64.78
12781;BME280;6454;43.304;24.344;2023-04-28T02:18:10;100662.31;;;7.47;65.52
12781;BME280;6454;43.304;24.344;2023-04-28T02:20:36;100674.94;;;7.41;66.14
12781;BME280;6454;43.304;24.344;2023-04-28T02:23:03;100677.34;;;7.38;66.31
12781;BME280;6454;43.304;24.344;2023-04-28T02:25:30;100686.69;;;7.30;66.19
12781;BME280;6454;43.304;24.344;2023-04-28T02:27:56;100687.16;;;7.05;66.64
12781;BME280;6454;43.304;24.344;2023-04-28T02:30:23;100688.94;;;6.95;66.93
12781;BME280;6454;43.304;24.344;2023-04-28T02:32:51;100684.09;;;6.97;67.29
12781;BME280;6454;43.304;24.344;2023-04-28T02:35:18;100697.91;;;7.00;67.21
12781;BME280;6454;43.304;24.344;2023-04-28T02:37:45;100697.84;;;6.95;67.13
12781;BME280;6454;43.304;24.344;2023-04-28T02:40:12;100710.03;;;6.81;67.79
12781;BME280;6454;43.304;24.344;2023-04-28T02:42:39;100707.44;;;6.70;68.32
12781;BME280;6454;43.304;24.344;2023-04-28T02:45:06;100708.75;;;6.67;68.83
12781;BME280;6454;43.304;24.344;2023-04-28T02:47:33;100716.03;;;6.67;68.24
12781;BME280;6454;43.304;24.344;2023-04-28T02:50:01;100717.97;;;6.71;67.47
12781;BME280;6454;43.304;24.344;2023-04-28T02:52:28;100716.59;;;6.69;68.04
12781;BME280;6454;43.304;24.344;2023-04-28T02:54:55;100713.91;;;6.52;68.69
12781;BME280;6454;43.304;24.344;2023-04-28T02:57:22;100715.88;;;6.40;69.91
12781;BME280;6454;43.304;24.344;2023-04-28T02:59:49;100721.03;;;6.41;69.39
12781;BME280;6454;43.304;24.344;2023-04-28T03:02:16;100725.94;;;6.44;68.71
12781;BME280;6454;43.304;24.344;2023-04-28T03:04:44;100707.63;;;6.30;68.16
12781;BME280;6454;43.304;24.344;2023-04-28T03:07:13;100722.72;;;6.31;68.74
12781;BME280;6454;43.304;24.344;2023-04-28T03:09:40;100733.41;;;6.26;69.02
12781;BME280;6454;43.304;24.344;2023-04-28T03:12:07;100737.31;;;6.18;69.40
12781;BME280;6454;43.304;24.344;2023-04-28T03:14:33;100746.22;;;6.19;69.16
12781;BME280;6454;43.304;24.344;2023-04-28T03:17:00;100742.72;;;6.18;69.33
12781;BME280;6454;43.304;24.344;2023-04-28T03:19:27;100746.97;;;6.14;69.39
12781;BME280;6454;43.304;24.344;2023-04-28T03:21:54;100753.81;;;6.05;69.98
12781;BME280;6454;43.304;24.344;2023-04-28T03:24:22;100752.06;;;5.99;70.74
12781;BME280;6454;43.304;24.344;2023-04-28T03:26:49;100760.59;;;6.08;71.12
12781;BME280;6454;43.304;24.344;2023-04-28T03:29:16;100764.78;;;6.15;71.27
12781;BME280;6454;43.304;24.344;2023-04-28T03:31:43;100765.34;;;6.17;71.54
12781;BME280;6454;43.304;24.344;2023-04-28T03:34:09;100768.78;;;6.13;72.14
12781;BME280;6454;43.304;24.344;2023-04-28T03:36:36;100777.06;;;6.11;72.67
12781;BME280;6454;43.304;24.344;2023-04-28T03:39:03;100772.97;;;6.09;72.70
12781;BME280;6454;43.304;24.344;2023-04-28T03:41:31;100780.03;;;6.26;72.48
12781;BME280;6454;43.304;24.344;2023-04-28T03:43:58;100783.16;;;6.35;72.36
12781;BME280;6454;43.304;24.344;2023-04-28T03:46:25;100783.56;;;6.43;71.88
12781;BME280;6454;43.304;24.344;2023-04-28T03:48:51;100786.88;;;6.45;71.55
12781;BME280;6454;43.304;24.344;2023-04-28T03:51:18;100786.69;;;6.52;70.64
12781;BME280;6454;43.304;24.344;2023-04-28T03:53:45;100794.22;;;6.67;70.02
12781;BME280;6454;43.304;24.344;2023-04-28T03:56:12;100801.63;;;6.76;69.38
12781;BME280;6454;43.304;24.344;2023-04-28T03:58:40;100802.06;;;6.85;68.87
12781;BME280;6454;43.304;24.344;2023-04-28T04:01:07;100807.03;;;6.93;68.73
12781;BME280;6454;43.304;24.344;2023-04-28T04:03:34;100813.31;;;6.98;68.48
12781;BME280;6454;43.304;24.344;2023-04-28T04:06:01;100817.31;;;7.12;68.18
12781;BME280;6454;43.304;24.344;2023-04-28T04:08:27;100821.56;;;7.25;67.46
12781;BME280;6454;43.304;24.344;2023-04-28T04:10:55;100827.16;;;7.40;68.08
12781;BME280;6454;43.304;24.344;2023-04-28T04:13:21;100835.34;;;7.45;68.50
12781;BME280;6454;43.304;24.344;2023-04-28T04:15:50;100830.44;;;7.42;68.77
12781;BME280;6454;43.304;24.344;2023-04-28T04:18:17;100836.88;;;7.41;68.19
12781;BME280;6454;43.304;24.344;2023-04-28T04:20:44;100841.38;;;7.52;67.29
12781;BME280;6454;43.304;24.344;2023-04-28T04:23:11;100836.34;;;7.61;65.55
12781;BME280;6454;43.304;24.344;2023-04-28T04:25:38;100834.59;;;7.71;65.65
12781;BME280;6454;43.304;24.344;2023-04-28T04:28:04;100848.72;;;7.78;65.59
12781;BME280;6454;43.304;24.344;2023-04-28T04:30:31;100833.47;;;7.89;65.05
12781;BME280;6454;43.304;24.344;2023-04-28T04:32:59;100840.03;;;7.98;64.22
12781;BME280;6454;43.304;24.344;2023-04-28T04:35:26;100844.25;;;8.11;64.01
12781;BME280;6454;43.304;24.344;2023-04-28T04:37:53;100848.44;;;8.23;64.08
12781;BME280;6454;43.304;24.344;2023-04-28T04:40:20;100849.09;;;8.30;63.64
12781;BME280;6454;43.304;24.344;2023-04-28T04:42:47;100851.91;;;8.40;63.55
12781;BME280;6454;43.304;24.344;2023-04-28T04:45:13;100848.94;;;8.42;63.22
12781;BME280;6454;43.304;24.344;2023-04-28T04:47:40;100845.75;;;8.50;62.87
12781;BME280;6454;43.304;24.344;2023-04-28T04:50:09;100847.56;;;8.66;62.91
12781;BME280;6454;43.304;24.344;2023-04-28T04:52:36;100857.41;;;8.77;63.12
12781;BME280;6454;43.304;24.344;2023-04-28T04:55:04;100850.91;;;8.78;62.53
12781;BME280;6454;43.304;24.344;2023-04-28T04:57:31;100850.94;;;8.83;62.59
12781;BME280;6454;43.304;24.344;2023-04-28T04:59:58;100857.50;;;8.92;62.69
12781;BME280;6454;43.304;24.344;2023-04-28T05:02:25;100860.00;;;8.99;62.01
12781;BME280;6454;43.304;24.344;2023-04-28T05:04:51;100857.53;;;8.97;61.36
12781;BME280;6454;43.304;24.344;2023-04-28T05:07:20;100855.97;;;9.01;60.63
12781;BME280;6454;43.304;24.344;2023-04-28T05:09:46;100844.56;;;8.94;60.01
12781;BME280;6454;43.304;24.344;2023-04-28T05:12:13;100861.97;;;9.08;60.73
12781;BME280;6454;43.304;24.344;2023-04-28T05:14:40;100865.03;;;9.17;60.76
12781;BME280;6454;43.304;24.344;2023-04-28T05:17:07;100861.25;;;9.18;60.56
12781;BME280;6454;43.304;24.344;2023-04-28T05:19:33;100863.63;;;9.10;60.05
12781;BME280;6454;43.304;24.344;2023-04-28T05:22:00;100869.00;;;9.04;59.66
12781;BME280;6454;43.304;24.344;2023-04-28T05:24:28;100866.81;;;9.01;59.60
12781;BME280;6454;43.304;24.344;2023-04-28T05:26:57;100858.97;;;9.05;60.01
12781;BME280;6454;43.304;24.344;2023-04-28T05:29:24;100863.41;;;9.16;60.49
12781;BME280;6454;43.304;24.344;2023-04-28T05:31:51;100856.41;;;9.25;59.90
12781;BME280;6454;43.304;24.344;2023-04-28T05:34:18;100863.16;;;9.23;60.42
12781;BME280;6454;43.304;24.344;2023-04-28T05:36:45;100863.16;;;9.23;60.70
12781;BME280;6454;43.304;24.344;2023-04-28T05:39:12;100868.06;;;9.26;59.67
12781;BME280;6454;43.304;24.344;2023-04-28T05:41:40;100863.78;;;9.30;60.26
12781;BME280;6454;43.304;24.344;2023-04-28T05:44:06;100869.78;;;9.37;60.17
12781;BME280;6454;43.304;24.344;2023-04-28T05:46:33;100868.19;;;9.46;60.66
12781;BME280;6454;43.304;24.344;2023-04-28T05:49:00;100874.50;;;9.56;60.88
12781;BME280;6454;43.304;24.344;2023-04-28T05:51:27;100874.28;;;9.68;61.10
12781;BME280;6454;43.304;24.344;2023-04-28T05:53:54;100873.78;;;9.76;60.20
12781;BME280;6454;43.304;24.344;2023-04-28T05:56:21;100881.13;;;9.81;59.05
12781;BME280;6454;43.304;24.344;2023-04-28T05:58:49;100884.09;;;9.79;58.88
12781;BME280;6454;43.304;24.344;2023-04-28T06:01:16;100884.63;;;9.76;58.52
12781;BME280;6454;43.304;24.344;2023-04-28T06:03:43;100889.03;;;9.92;58.71
12781;BME280;6454;43.304;24.344;2023-04-28T06:06:10;100882.00;;;9.91;58.29
12781;BME280;6454;43.304;24.344;2023-04-28T06:08:38;100884.72;;;9.96;58.49
12781;BME280;6454;43.304;24.344;2023-04-28T06:11:04;100879.88;;;10.03;57.90
12781;BME280;6454;43.304;24.344;2023-04-28T06:13:31;100876.75;;;10.31;58.39
12781;BME280;6454;43.304;24.344;2023-04-28T06:16:00;100881.16;;;10.58;57.60
12781;BME280;6454;43.304;24.344;2023-04-28T06:18:28;100879.81;;;10.70;56.25
12781;BME280;6454;43.304;24.344;2023-04-28T06:20:56;100886.63;;;10.78;56.00
12781;BME280;6454;43.304;24.344;2023-04-28T06:23:23;100882.56;;;10.85;55.27
12781;BME280;6454;43.304;24.344;2023-04-28T06:25:50;100870.06;;;10.94;55.22
12781;BME280;6454;43.304;24.344;2023-04-28T06:28:17;100884.44;;;11.00;55.03
12781;BME280;6454;43.304;24.344;2023-04-28T06:30:43;100838.28;;;10.75;54.97
12781;BME280;6454;43.304;24.344;2023-04-28T06:33:12;100885.81;;;11.28;54.87
12781;BME280;6454;43.304;24.344;2023-04-28T06:35:38;100890.16;;;11.44;53.91
12781;BME280;6454;43.304;24.344;2023-04-28T06:38:06;100887.94;;;11.56;53.61
12781;BME280;6454;43.304;24.344;2023-04-28T06:40:32;100891.72;;;11.75;52.05
12781;BME280;6454;43.304;24.344;2023-04-28T06:42:59;100899.56;;;11.92;53.54
12781;BME280;6454;43.304;24.344;2023-04-28T06:45:26;100889.47;;;11.97;53.91
12781;BME280;6454;43.304;24.344;2023-04-28T06:47:53;100881.03;;;12.09;53.31
12781;BME280;6454;43.304;24.344;2023-04-28T06:50:23;100888.53;;;12.27;53.30
12781;BME280;6454;43.304;24.344;2023-04-28T06:52:50;100893.34;;;12.45;52.71
12781;BME280;6454;43.304;24.344;2023-04-28T06:55:16;100886.84;;;12.41;51.27
12781;BME280;6454;43.304;24.344;2023-04-28T06:57:43;100886.84;;;12.41;50.27
12781;BME280;6454;43.304;24.344;2023-04-28T07:00:11;100889.56;;;12.41;51.72
12781;BME280;6454;43.304;24.344;2023-04-28T07:02:38;100891.19;;;12.42;51.23
12781;BME280;6454;43.304;24.344;2023-04-28T07:05:05;100893.66;;;12.44;51.72
12781;BME280;6454;43.304;24.344;2023-04-28T07:07:35;100886.22;;;12.54;51.82
12781;BME280;6454;43.304;24.344;2023-04-28T07:10:04;100890.56;;;12.55;51.11
12781;BME280;6454;43.304;24.344;2023-04-28T07:12:31;100892.75;;;12.58;51.08
12781;BME280;6454;43.304;24.344;2023-04-28T07:14:58;100895.16;;;12.60;50.69
12781;BME280;6454;43.304;24.344;2023-04-28T07:17:24;100890.59;;;12.50;50.03
12781;BME280;6454;43.304;24.344;2023-04-28T07:19:51;100894.97;;;12.51;50.98
12781;BME280;6454;43.304;24.344;2023-04-28T07:22:18;100895.06;;;12.75;51.00
12781;BME280;6454;43.304;24.344;2023-04-28T07:24:46;100813.47;;;12.26;50.77
12781;BME280;6454;43.304;24.344;2023-04-28T07:27:13;100895.59;;;12.77;50.70
12781;BME280;6454;43.304;24.344;2023-04-28T07:29:40;100896.06;;;12.89;51.71
12781;BME280;6454;43.304;24.344;2023-04-28T07:32:06;100895.97;;;12.99;51.10
12781;BME280;6454;43.304;24.344;2023-04-28T07:34:35;100889.59;;;13.19;49.54
12781;BME280;6454;43.304;24.344;2023-04-28T07:37:02;100894.84;;;13.39;50.30
12781;BME280;6454;43.304;24.344;2023-04-28T07:39:29;100890.94;;;13.50;47.98
12781;BME280;6454;43.304;24.344;2023-04-28T07:41:58;100894.66;;;13.59;48.89
12781;BME280;6454;43.304;24.344;2023-04-28T07:44:25;100879.31;;;13.68;48.55
12781;BME280;6454;43.304;24.344;2023-04-28T07:46:52;100886.91;;;13.71;48.59
12781;BME280;6454;43.304;24.344;2023-04-28T07:49:19;100883.03;;;13.77;47.81
12781;BME280;6454;43.304;24.344;2023-04-28T07:51:46;100885.75;;;14.01;49.14
12781;BME280;6454;43.304;24.344;2023-04-28T07:54:14;100882.53;;;14.17;47.49
12781;BME280;6454;43.304;24.344;2023-04-28T07:56:41;100884.69;;;14.20;47.87
12781;BME280;6454;43.304;24.344;2023-04-28T07:59:09;100886.44;;;14.11;47.34
12781;BME280;6454;43.304;24.344;2023-04-28T08:01:36;100887.09;;;14.03;48.55
12781;BME280;6454;43.304;24.344;2023-04-28T08:04:03;100878.03;;;14.08;49.01
12781;BME280;6454;43.304;24.344;2023-04-28T08:06:29;100875.84;;;14.29;48.78
12781;BME280;6454;43.304;24.344;2023-04-28T08:08:58;100875.38;;;14.21;48.19
12781;BME280;6454;43.304;24.344;2023-04-28T08:11:26;100874.34;;;14.17;50.03
12781;BME280;6454;43.304;24.344;2023-04-28T08:13:53;100865.50;;;14.31;48.95
12781;BME280;6454;43.304;24.344;2023-04-28T08:16:27;100862.91;;;14.39;48.10
12781;BME280;6454;43.304;24.344;2023-04-28T08:18:53;100870.69;;;14.51;48.65
12781;BME280;6454;43.304;24.344;2023-04-28T08:21:20;100863.00;;;14.53;50.21
12781;BME280;6454;43.304;24.344;2023-04-28T08:23:47;100863.13;;;14.61;50.28
12781;BME280;6454;43.304;24.344;2023-04-28T08:26:14;100863.56;;;14.68;48.76
12781;BME280;6454;43.304;24.344;2023-04-28T08:28:41;100864.97;;;14.66;50.15
12781;BME280;6454;43.304;24.344;2023-04-28T08:31:07;100818.34;;;14.44;49.64
12781;BME280;6454;43.304;24.344;2023-04-28T08:33:35;100852.94;;;14.86;50.60
12781;BME280;6454;43.304;24.344;2023-04-28T08:36:04;100852.63;;;14.87;48.98
12781;BME280;6454;43.304;24.344;2023-04-28T08:38:30;100849.50;;;14.94;50.75
12781;BME280;6454;43.304;24.344;2023-04-28T08:40:57;100843.34;;;15.20;49.75
12781;BME280;6454;43.304;24.344;2023-04-28T08:43:24;100851.38;;;15.44;49.52
12781;BME280;6454;43.304;24.344;2023-04-28T08:45:53;100842.72;;;15.23;48.42
12781;BME280;6454;43.304;24.344;2023-04-28T08:48:20;100845.88;;;15.30;49.83
12781;BME280;6454;43.304;24.344;2023-04-28T08:50:50;100838.28;;;15.41;48.59
12781;BME280;6454;43.304;24.344;2023-04-28T08:53:21;100840.06;;;15.51;48.63
12781;BME280;6454;43.304;24.344;2023-04-28T08:55:51;100832.91;;;15.36;49.19
12781;BME280;6454;43.304;24.344;2023-04-28T08:58:21;100832.22;;;15.44;48.69
12781;BME280;6454;43.304;24.344;2023-04-28T09:00:48;100831.47;;;15.71;49.14
12781;BME280;6454;43.304;24.344;2023-04-28T09:03:15;100833.88;;;15.86;49.50
12781;BME280;6454;43.304;24.344;2023-04-28T09:05:42;100701.50;;;15.05;50.41
12781;BME280;6454;43.304;24.344;2023-04-28T09:08:10;100823.97;;;15.63;51.19
12781;BME280;6454;43.304;24.344;2023-04-28T09:10:37;100734.94;;;14.83;51.50
12781;BME280;6454;43.304;24.344;2023-04-28T09:13:04;100801.88;;;15.13;50.32
12781;BME280;6454;43.304;24.344;2023-04-28T09:15:32;100784.44;;;15.28;51.87
12781;BME280;6454;43.304;24.344;2023-04-28T09:18:01;100820.22;;;15.45;51.18
12781;BME280;6454;43.304;24.344;2023-04-28T09:20:29;100819.97;;;15.28;51.21
12781;BME280;6454;43.304;24.344;2023-04-28T09:23:13;100740.88;;;15.04;52.27
12781;BME280;6454;43.304;24.344;2023-04-28T09:25:41;100801.25;;;15.76;50.70
12781;BME280;6454;43.304;24.344;2023-04-28T09:28:21;100805.53;;;15.82;49.69
12781;BME280;6454;43.304;24.344;2023-04-28T09:30:48;100803.69;;;15.91;50.84
12781;BME280;6454;43.304;24.344;2023-04-28T09:33:14;100805.72;;;15.99;51.88
12781;BME280;6454;43.304;24.344;2023-04-28T09:35:42;100805.50;;;16.09;51.42
12781;BME280;6454;43.304;24.344;2023-04-28T09:38:12;100803.72;;;16.27;49.99
12781;BME280;6454;43.304;24.344;2023-04-28T09:40:54;100784.38;;;16.23;50.21
12781;BME280;6454;43.304;24.344;2023-04-28T09:43:28;100787.63;;;16.25;49.80
12781;BME280;6454;43.304;24.344;2023-04-28T09:45:57;100788.75;;;16.46;51.15
12781;BME280;6454;43.304;24.344;2023-04-28T09:48:31;100789.63;;;16.69;49.12
12781;BME280;6454;43.304;24.344;2023-04-28T09:50:59;100783.19;;;16.73;48.01
12781;BME280;6454;43.304;24.344;2023-04-28T09:53:29;100787.84;;;16.95;47.05
12781;BME280;6454;43.304;24.344;2023-04-28T09:55:57;100778.84;;;16.95;45.36
12781;BME280;6454;43.304;24.344;2023-04-28T09:58:28;100743.50;;;16.62;46.70
12781;BME280;6454;43.304;24.344;2023-04-28T10:00:57;100693.06;;;16.05;47.64
12781;BME280;6454;43.304;24.344;2023-04-28T10:03:26;100777.19;;;16.27;46.82
12781;BME280;6454;43.304;24.344;2023-04-28T10:05:55;100773.53;;;16.18;46.12
12781;BME280;6454;43.304;24.344;2023-04-28T10:08:23;100772.41;;;16.19;46.45
12781;BME280;6454;43.304;24.344;2023-04-28T10:10:53;100764.47;;;16.31;47.13
12781;BME280;6454;43.304;24.344;2023-04-28T10:13:21;100769.22;;;16.39;48.44
12781;BME280;6454;43.304;24.344;2023-04-28T10:15:48;100705.09;;;16.18;47.74
12781;BME280;6454;43.304;24.344;2023-04-28T10:18:16;100740.13;;;16.07;46.99
12781;BME280;6454;43.304;24.344;2023-04-28T10:20:45;100775.03;;;16.24;46.77
12781;BME280;6454;43.304;24.344;2023-04-28T10:23:36;100766.84;;;16.10;47.87
12781;BME280;6454;43.304;24.344;2023-04-28T10:26:11;100763.50;;;16.13;47.15
12781;BME280;6454;43.304;24.344;2023-04-28T10:28:44;100764.94;;;16.11;47.71
12781;BME280;6454;43.304;24.344;2023-04-28T10:31:14;100763.94;;;16.07;49.26
12781;BME280;6454;43.304;24.344;2023-04-28T10:33:42;100759.22;;;16.21;48.99
12781;BME280;6454;43.304;24.344;2023-04-28T10:36:09;100772.31;;;16.24;46.14
12781;BME280;6454;43.304;24.344;2023-04-28T10:39:09;100757.75;;;16.15;46.49
12781;BME280;6454;43.304;24.344;2023-04-28T10:41:38;100756.69;;;15.89;47.72
12781;BME280;6454;43.304;24.344;2023-04-28T10:47:09;100756.00;;;15.70;50.01
12781;BME280;6454;43.304;24.344;2023-04-28T10:50:07;100762.19;;;15.75;50.18
12781;BME280;6454;43.304;24.344;2023-04-28T10:52:47;100721.97;;;15.48;50.54
12781;BME280;6454;43.304;24.344;2023-04-28T10:55:30;100726.13;;;15.60;50.16
12781;BME280;6454;43.304;24.344;2023-04-28T10:58:30;100746.38;;;15.72;47.51
12781;BME280;6454;43.304;24.344;2023-04-28T11:01:25;100741.00;;;15.67;48.43
12781;BME280;6454;43.304;24.344;2023-04-28T11:03:54;100733.19;;;15.74;48.28
12781;BME280;6454;43.304;24.344;2023-04-28T11:06:28;100740.41;;;15.70;48.21
12781;BME280;6454;43.304;24.344;2023-04-28T11:08:57;100739.88;;;15.68;47.15
12781;BME280;6454;43.304;24.344;2023-04-28T11:11:25;100654.75;;;15.20;45.35
12781;BME280;6454;43.304;24.344;2023-04-28T11:13:55;100723.34;;;15.87;43.71
12781;BME280;6454;43.304;24.344;2023-04-28T11:16:49;100728.50;;;15.88;45.37
12781;BME280;6454;43.304;24.344;2023-04-28T11:19:19;100688.03;;;15.63;45.34
12781;BME280;6454;43.304;24.344;2023-04-28T11:21:46;100720.13;;;15.85;45.82
12781;BME280;6454;43.304;24.344;2023-04-28T11:24:13;100722.13;;;15.93;45.93
12781;BME280;6454;43.304;24.344;2023-04-28T11:26:42;100723.03;;;15.88;46.05
12781;BME280;6454;43.304;24.344;2023-04-28T11:29:10;100694.09;;;15.74;45.78
12781;BME280;6454;43.304;24.344;2023-04-28T11:31:39;100720.00;;;15.90;45.87
12781;BME280;6454;43.304;24.344;2023-04-28T11:34:09;100713.75;;;16.11;46.85
12781;BME280;6454;43.304;24.344;2023-04-28T11:36:40;100715.03;;;16.28;44.94
12781;BME280;6454;43.304;24.344;2023-04-28T11:39:08;100597.25;;;15.75;43.95
12781;BME280;6454;43.304;24.344;2023-04-28T11:41:40;100701.13;;;16.46;46.42
12781;BME280;6454;43.304;24.344;2023-04-28T11:44:13;100704.47;;;16.43;46.63
12781;BME280;6454;43.304;24.344;2023-04-28T11:46:43;100673.13;;;16.49;47.58
12781;BME280;6454;43.304;24.344;2023-04-28T11:49:11;100691.69;;;16.83;45.98
12781;BME280;6454;43.304;24.344;2023-04-28T11:51:39;100691.03;;;17.08;43.86
12781;BME280;6454;43.304;24.344;2023-04-28T11:54:07;100690.66;;;17.01;40.80
12781;BME280;6454;43.304;24.344;2023-04-28T11:56:37;100685.50;;;17.00;41.56
12781;BME280;6454;43.304;24.344;2023-04-28T11:59:06;100603.16;;;16.43;42.08
12781;BME280;6454;43.304;24.344;2023-04-28T12:01:43;100701.63;;;16.70;44.02
12781;BME280;6454;43.304;24.344;2023-04-28T12:04:11;100684.81;;;16.41;43.70
12781;BME280;6454;43.304;24.344;2023-04-28T12:06:38;100679.84;;;16.21;44.19
12781;BME280;6454;43.304;24.344;2023-04-28T12:09:15;100616.97;;;15.85;43.40
12781;BME280;6454;43.304;24.344;2023-04-28T12:11:54;100685.31;;;16.65;43.26
12781;BME280;6454;43.304;24.344;2023-04-28T12:14:22;100673.47;;;16.79;42.91
12781;BME280;6454;43.304;24.344;2023-04-28T12:16:50;100660.94;;;16.86;42.55
12781;BME280;6454;43.304;24.344;2023-04-28T12:19:18;100674.84;;;16.98;41.75
12781;BME280;6454;43.304;24.344;2023-04-28T12:22:02;100670.94;;;16.91;41.47
12781;BME280;6454;43.304;24.344;2023-04-28T12:24:29;100567.00;;;16.24;41.54
12781;BME280;6454;43.304;24.344;2023-04-28T12:27:14;100668.63;;;16.75;43.19
12781;BME280;6454;43.304;24.344;2023-04-28T12:29:42;100672.53;;;16.52;42.30
12781;BME280;6454;43.304;24.344;2023-04-28T12:32:12;100668.38;;;16.55;43.80
12781;BME280;6454;43.304;24.344;2023-04-28T12:34:40;100659.56;;;16.44;43.68
12781;BME280;6454;43.304;24.344;2023-04-28T12:37:08;100653.97;;;16.27;43.41
12781;BME280;6454;43.304;24.344;2023-04-28T12:39:35;100652.41;;;16.57;44.41
12781;BME280;6454;43.304;24.344;2023-04-28T12:42:03;100635.31;;;16.82;44.48
12781;BME280;6454;43.304;24.344;2023-04-28T12:44:34;100652.97;;;17.07;43.37
12781;BME280;6454;43.304;24.344;2023-04-28T12:47:02;100660.19;;;17.03;43.60
12781;BME280;6454;43.304;24.344;2023-04-28T12:49:30;100650.19;;;16.98;42.27
12781;BME280;6454;43.304;24.344;2023-04-28T12:51:58;100647.31;;;17.03;41.71
12781;BME280;6454;43.304;24.344;2023-04-28T12:54:25;100646.00;;;17.01;41.21
12781;BME280;6454;43.304;24.344;2023-04-28T12:56:52;100640.19;;;16.94;42.28
12781;BME280;6454;43.304;24.344;2023-04-28T12:59:20;100636.38;;;17.12;41.37
12781;BME280;6454;43.304;24.344;2023-04-28T13:01:47;100634.19;;;17.39;42.91
12781;BME280;6454;43.304;24.344;2023-04-28T13:04:14;100640.28;;;17.28;41.61